sensor_id;sensor_type;location;lat;lon;timestamp;temperature;humidity
13742;DHT22;8461;52.356;10.704;2022-08-05T00:01:39;21.50;99.90
13742;DHT22;8461;52.356;10.704;2022-08-05T00:04:05;21.40;99.90
13742;DHT22;8461;52.356;10.704;2022-08-05T00:06:31;21.30;99.90
13742;DHT22;8461;52.356;10.704;2022-08-05T00:08:56;21.30;99.90
13742;DHT22;8461;52.356;10.704;2022-08-05T00:11:22;21.20;99.90
13742;DHT22;8461;52.356;10.704;2022-08-05T00:13:47;21.20;99.90
13742;DHT22;8461;52.356;10.704;2022-08-05T00:16:14;21.20;99.90
13742;DHT22;8461;52.356;10.704;2022-08-05T00:18:46;21.10;99.90
13742;DHT22;8461;52.356;10.704;2022-08-05T00:21:13;21.00;99.90
13742;DHT22;8461;52.356;10.704;2022-08-05T00:23:40;21.00;99.90
13742;DHT22;8461;52.356;10.704;2022-08-05T00:26:06;21.00;99.90
13742;DHT22;8461;52.356;10.704;2022-08-05T00:28:32;21.10;99.90
13742;DHT22;8461;52.356;10.704;2022-08-05T00:30:58;21.10;99.90
13742;DHT22;8461;52.356;10.704;2022-08-05T00:33:24;21.10;99.90
13742;DHT22;8461;52.356;10.704;2022-08-05T00:35:50;20.90;99.90
13742;DHT22;8461;52.356;10.704;2022-08-05T00:38:15;20.80;99.90
13742;DHT22;8461;52.356;10.704;2022-08-05T00:40:52;20.70;99.90
13742;DHT22;8461;52.356;10.704;2022-08-05T00:43:18;20.80;99.90
13742;DHT22;8461;52.356;10.704;2022-08-05T00:45:44;20.80;99.90
13742;DHT22;8461;52.356;10.704;2022-08-05T00:48:14;20.70;99.90
13742;DHT22;8461;52.356;10.704;2022-08-05T00:50:43;20.60;99.90
13742;DHT22;8461;52.356;10.704;2022-08-05T00:53:09;20.50;99.90
13742;DHT22;8461;52.356;10.704;2022-08-05T00:55:35;20.40;99.90
13742;DHT22;8461;52.356;10.704;2022-08-05T00:58:01;20.40;99.90
13742;DHT22;8461;52.356;10.704;2022-08-05T01:00:30;20.20;99.90
13742;DHT22;8461;52.356;10.704;2022-08-05T01:02:56;20.10;99.90
13742;DHT22;8461;52.356;10.704;2022-08-05T01:05:23;20.00;99.90
13742;DHT22;8461;52.356;10.704;2022-08-05T01:07:49;20.00;99.90
13742;DHT22;8461;52.356;10.704;2022-08-05T01:10:16;19.90;99.90
13742;DHT22;8461;52.356;10.704;2022-08-05T01:12:46;19.80;99.90
13742;DHT22;8461;52.356;10.704;2022-08-05T01:15:16;19.80;99.90
13742;DHT22;8461;52.356;10.704;2022-08-05T01:17:48;19.80;99.90
13742;DHT22;8461;52.356;10.704;2022-08-05T01:23:43;19.80;99.90
13742;DHT22;8461;52.356;10.704;2022-08-05T01:26:27;19.80;99.90
13742;DHT22;8461;52.356;10.704;2022-08-05T01:29:20;19.80;99.90
13742;DHT22;8461;52.356;10.704;2022-08-05T01:31:48;19.80;99.90
13742;DHT22;8461;52.356;10.704;2022-08-05T01:34:56;19.80;99.90
13742;DHT22;8461;52.356;10.704;2022-08-05T01:37:40;19.80;99.90
13742;DHT22;8461;52.356;10.704;2022-08-05T01:40:09;19.80;99.90
13742;DHT22;8461;52.356;10.704;2022-08-05T01:42:35;19.80;99.90
13742;DHT22;8461;52.356;10.704;2022-08-05T01:45:03;19.80;99.90
13742;DHT22;8461;52.356;10.704;2022-08-05T01:47:31;19.80;99.90
13742;DHT22;8461;52.356;10.704;2022-08-05T01:49:58;19.70;99.90
13742;DHT22;8461;52.356;10.704;2022-08-05T01:52:26;19.70;99.90
13742;DHT22;8461;52.356;10.704;2022-08-05T01:54:55;19.70;99.90
13742;DHT22;8461;52.356;10.704;2022-08-05T01:57:32;19.60;99.90
13742;DHT22;8461;52.356;10.704;2022-08-05T02:00:01;19.60;99.90
13742;DHT22;8461;52.356;10.704;2022-08-05T02:02:30;19.60;99.90
13742;DHT22;8461;52.356;10.704;2022-08-05T02:05:02;19.50;99.90
13742;DHT22;8461;52.356;10.704;2022-08-05T02:07:30;19.50;99.90
13742;DHT22;8461;52.356;10.704;2022-08-05T02:09:56;19.50;99.90
13742;DHT22;8461;52.356;10.704;2022-08-05T02:12:33;19.50;99.90
13742;DHT22;8461;52.356;10.704;2022-08-05T02:15:12;19.40;99.90
13742;DHT22;8461;52.356;10.704;2022-08-05T02:18:04;19.40;99.90
13742;DHT22;8461;52.356;10.704;2022-08-05T02:21:00;19.40;99.90
13742;DHT22;8461;52.356;10.704;2022-08-05T02:23:29;19.50;99.90
13742;DHT22;8461;52.356;10.704;2022-08-05T02:25:56;19.40;99.90
13742;DHT22;8461;52.356;10.704;2022-08-05T02:28:27;19.40;99.90
13742;DHT22;8461;52.356;10.704;2022-08-05T02:30:57;19.30;99.90
13742;DHT22;8461;52.356;10.704;2022-08-05T02:33:25;19.30;99.90
13742;DHT22;8461;52.356;10.704;2022-08-05T02:35:54;19.30;99.90
13742;DHT22;8461;52.356;10.704;2022-08-05T02:38:21;19.30;99.90
13742;DHT22;8461;52.356;10.704;2022-08-05T02:40:46;19.40;99.90
13742;DHT22;8461;52.356;10.704;2022-08-05T02:43:13;19.30;99.90
13742;DHT22;8461;52.356;10.704;2022-08-05T02:45:43;19.30;99.90
13742;DHT22;8461;52.356;10.704;2022-08-05T02:48:11;19.40;99.90
13742;DHT22;8461;52.356;10.704;2022-08-05T02:50:37;19.40;99.90
13742;DHT22;8461;52.356;10.704;2022-08-05T02:53:03;19.30;99.90
13742;DHT22;8461;52.356;10.704;2022-08-05T02:55:30;19.40;99.90
13742;DHT22;8461;52.356;10.704;2022-08-05T02:57:57;19.30;99.90
13742;DHT22;8461;52.356;10.704;2022-08-05T03:00:23;19.30;99.90
13742;DHT22;8461;52.356;10.704;2022-08-05T03:02:49;19.30;99.90
13742;DHT22;8461;52.356;10.704;2022-08-05T03:05:16;19.30;99.90
13742;DHT22;8461;52.356;10.704;2022-08-05T03:07:42;19.30;99.90
13742;DHT22;8461;52.356;10.704;2022-08-05T03:10:08;19.30;99.90
13742;DHT22;8461;52.356;10.704;2022-08-05T03:12:36;19.40;99.90
13742;DHT22;8461;52.356;10.704;2022-08-05T03:15:07;19.30;99.90
13742;DHT22;8461;52.356;10.704;2022-08-05T03:17:33;19.30;99.90
13742;DHT22;8461;52.356;10.704;2022-08-05T03:19:59;19.30;99.90
13742;DHT22;8461;52.356;10.704;2022-08-05T03:22:24;19.30;99.90
13742;DHT22;8461;52.356;10.704;2022-08-05T03:24:51;19.30;99.90
13742;DHT22;8461;52.356;10.704;2022-08-05T03:27:18;19.30;99.90
13742;DHT22;8461;52.356;10.704;2022-08-05T03:29:43;19.20;99.90
13742;DHT22;8461;52.356;10.704;2022-08-05T03:32:09;19.20;99.90
13742;DHT22;8461;52.356;10.704;2022-08-05T03:34:36;19.10;99.90
13742;DHT22;8461;52.356;10.704;2022-08-05T03:37:02;19.10;99.90
13742;DHT22;8461;52.356;10.704;2022-08-05T03:39:28;19.10;99.90
13742;DHT22;8461;52.356;10.704;2022-08-05T03:41:54;19.10;99.90
13742;DHT22;8461;52.356;10.704;2022-08-05T03:44:20;19.10;99.90
13742;DHT22;8461;52.356;10.704;2022-08-05T03:46:46;19.00;99.90
13742;DHT22;8461;52.356;10.704;2022-08-05T03:49:11;19.00;99.90
13742;DHT22;8461;52.356;10.704;2022-08-05T03:52:08;19.10;99.90
13742;DHT22;8461;52.356;10.704;2022-08-05T03:54:49;19.20;99.90
13742;DHT22;8461;52.356;10.704;2022-08-05T03:57:19;19.20;99.90
13742;DHT22;8461;52.356;10.704;2022-08-05T03:59:54;19.10;99.90
13742;DHT22;8461;52.356;10.704;2022-08-05T04:02:23;19.00;99.90
13742;DHT22;8461;52.356;10.704;2022-08-05T04:04:50;19.10;99.90
13742;DHT22;8461;52.356;10.704;2022-08-05T04:07:16;19.00;99.90
13742;DHT22;8461;52.356;10.704;2022-08-05T04:09:42;19.00;99.90
13742;DHT22;8461;52.356;10.704;2022-08-05T04:12:08;18.90;99.90
13742;DHT22;8461;52.356;10.704;2022-08-05T04:14:35;18.90;99.90
13742;DHT22;8461;52.356;10.704;2022-08-05T04:17:01;18.80;99.90
13742;DHT22;8461;52.356;10.704;2022-08-05T04:19:29;18.80;99.90
13742;DHT22;8461;52.356;10.704;2022-08-05T04:21:55;18.80;99.90
13742;DHT22;8461;52.356;10.704;2022-08-05T04:24:20;18.80;99.90
13742;DHT22;8461;52.356;10.704;2022-08-05T04:26:46;18.80;99.90
13742;DHT22;8461;52.356;10.704;2022-08-05T04:29:11;18.80;99.90
13742;DHT22;8461;52.356;10.704;2022-08-05T04:31:37;18.70;99.90
13742;DHT22;8461;52.356;10.704;2022-08-05T04:34:03;18.80;99.90
13742;DHT22;8461;52.356;10.704;2022-08-05T04:36:28;18.80;99.90
13742;DHT22;8461;52.356;10.704;2022-08-05T04:38:54;18.90;99.90
13742;DHT22;8461;52.356;10.704;2022-08-05T04:41:20;18.80;99.90
13742;DHT22;8461;52.356;10.704;2022-08-05T04:43:45;18.80;99.90
13742;DHT22;8461;52.356;10.704;2022-08-05T04:46:11;18.80;99.90
13742;DHT22;8461;52.356;10.704;2022-08-05T04:48:36;18.80;99.90
13742;DHT22;8461;52.356;10.704;2022-08-05T04:51:02;18.80;99.90
13742;DHT22;8461;52.356;10.704;2022-08-05T04:53:28;18.80;99.90
13742;DHT22;8461;52.356;10.704;2022-08-05T04:55:53;18.80;99.90
13742;DHT22;8461;52.356;10.704;2022-08-05T04:58:19;18.80;99.90
13742;DHT22;8461;52.356;10.704;2022-08-05T05:00:44;18.80;99.90
13742;DHT22;8461;52.356;10.704;2022-08-05T05:03:10;18.80;99.90
13742;DHT22;8461;52.356;10.704;2022-08-05T05:05:36;18.80;99.90
13742;DHT22;8461;52.356;10.704;2022-08-05T05:08:04;18.70;99.90
13742;DHT22;8461;52.356;10.704;2022-08-05T05:10:32;18.70;99.90
13742;DHT22;8461;52.356;10.704;2022-08-05T05:13:01;18.60;99.90
13742;DHT22;8461;52.356;10.704;2022-08-05T05:15:27;18.60;99.90
13742;DHT22;8461;52.356;10.704;2022-08-05T05:17:52;18.70;99.90
13742;DHT22;8461;52.356;10.704;2022-08-05T05:20:18;18.70;99.90
13742;DHT22;8461;52.356;10.704;2022-08-05T05:22:44;18.70;99.90
13742;DHT22;8461;52.356;10.704;2022-08-05T05:25:09;18.70;99.90
13742;DHT22;8461;52.356;10.704;2022-08-05T05:27:36;18.80;99.90
13742;DHT22;8461;52.356;10.704;2022-08-05T05:30:02;18.80;99.90
13742;DHT22;8461;52.356;10.704;2022-08-05T05:32:28;18.90;99.90
13742;DHT22;8461;52.356;10.704;2022-08-05T05:34:54;18.90;99.90
13742;DHT22;8461;52.356;10.704;2022-08-05T05:37:19;19.00;99.90
13742;DHT22;8461;52.356;10.704;2022-08-05T05:39:45;19.10;99.90
13742;DHT22;8461;52.356;10.704;2022-08-05T05:42:10;19.10;99.90
13742;DHT22;8461;52.356;10.704;2022-08-05T05:44:36;19.10;99.90
13742;DHT22;8461;52.356;10.704;2022-08-05T05:47:02;19.20;99.90
13742;DHT22;8461;52.356;10.704;2022-08-05T05:49:27;19.20;99.90
13742;DHT22;8461;52.356;10.704;2022-08-05T05:51:54;19.30;99.90
13742;DHT22;8461;52.356;10.704;2022-08-05T05:54:19;19.40;99.90
13742;DHT22;8461;52.356;10.704;2022-08-05T05:56:45;19.40;99.90
13742;DHT22;8461;52.356;10.704;2022-08-05T05:59:11;19.30;99.90
13742;DHT22;8461;52.356;10.704;2022-08-05T06:01:38;19.30;99.90
13742;DHT22;8461;52.356;10.704;2022-08-05T06:04:06;19.40;99.90
13742;DHT22;8461;52.356;10.704;2022-08-05T06:06:31;19.70;99.90
13742;DHT22;8461;52.356;10.704;2022-08-05T06:08:57;19.70;99.90
13742;DHT22;8461;52.356;10.704;2022-08-05T06:11:23;19.60;99.90
13742;DHT22;8461;52.356;10.704;2022-08-05T06:13:48;19.70;99.90
13742;DHT22;8461;52.356;10.704;2022-08-05T06:16:14;19.60;99.90
13742;DHT22;8461;52.356;10.704;2022-08-05T06:18:39;19.60;99.90
13742;DHT22;8461;52.356;10.704;2022-08-05T06:21:05;19.80;99.90
13742;DHT22;8461;52.356;10.704;2022-08-05T06:23:30;19.80;99.90
13742;DHT22;8461;52.356;10.704;2022-08-05T06:25:57;19.80;99.90
13742;DHT22;8461;52.356;10.704;2022-08-05T06:28:22;19.90;99.90
13742;DHT22;8461;52.356;10.704;2022-08-05T06:30:48;19.90;99.90
13742;DHT22;8461;52.356;10.704;2022-08-05T06:33:13;19.70;99.90
13742;DHT22;8461;52.356;10.704;2022-08-05T06:35:39;19.70;99.90
13742;DHT22;8461;52.356;10.704;2022-08-05T06:38:04;19.80;99.90
13742;DHT22;8461;52.356;10.704;2022-08-05T06:40:30;19.90;99.90
13742;DHT22;8461;52.356;10.704;2022-08-05T06:42:56;19.80;99.90
13742;DHT22;8461;52.356;10.704;2022-08-05T06:45:23;19.80;99.90
13742;DHT22;8461;52.356;10.704;2022-08-05T06:47:48;19.70;99.90
13742;DHT22;8461;52.356;10.704;2022-08-05T06:50:14;19.70;99.90
13742;DHT22;8461;52.356;10.704;2022-08-05T06:52:39;19.50;99.90
13742;DHT22;8461;52.356;10.704;2022-08-05T06:55:06;19.50;99.90
13742;DHT22;8461;52.356;10.704;2022-08-05T06:57:31;19.40;99.90
13742;DHT22;8461;52.356;10.704;2022-08-05T06:59:57;19.40;99.90
13742;DHT22;8461;52.356;10.704;2022-08-05T07:02:23;19.30;99.90
13742;DHT22;8461;52.356;10.704;2022-08-05T07:04:48;19.30;99.90
13742;DHT22;8461;52.356;10.704;2022-08-05T07:07:14;19.10;99.90
13742;DHT22;8461;52.356;10.704;2022-08-05T07:09:39;19.10;99.90
13742;DHT22;8461;52.356;10.704;2022-08-05T07:12:05;19.00;99.90
13742;DHT22;8461;52.356;10.704;2022-08-05T07:14:31;18.80;99.90
13742;DHT22;8461;52.356;10.704;2022-08-05T07:17:15;18.80;99.90
13742;DHT22;8461;52.356;10.704;2022-08-05T07:19:41;18.80;99.90
13742;DHT22;8461;52.356;10.704;2022-08-05T07:22:06;18.80;99.90
13742;DHT22;8461;52.356;10.704;2022-08-05T07:24:32;18.70;99.90
13742;DHT22;8461;52.356;10.704;2022-08-05T07:26:57;18.80;99.90
13742;DHT22;8461;52.356;10.704;2022-08-05T07:29:23;18.90;99.90
13742;DHT22;8461;52.356;10.704;2022-08-05T07:31:49;18.90;99.90
13742;DHT22;8461;52.356;10.704;2022-08-05T07:34:14;18.90;99.90
13742;DHT22;8461;52.356;10.704;2022-08-05T07:36:40;18.90;99.90
13742;DHT22;8461;52.356;10.704;2022-08-05T07:39:07;19.00;99.90
13742;DHT22;8461;52.356;10.704;2022-08-05T07:41:33;19.10;99.90
13742;DHT22;8461;52.356;10.704;2022-08-05T07:43:59;19.10;99.90
13742;DHT22;8461;52.356;10.704;2022-08-05T07:46:27;19.10;99.90
13742;DHT22;8461;52.356;10.704;2022-08-05T07:48:54;19.10;99.90
13742;DHT22;8461;52.356;10.704;2022-08-05T07:51:20;19.20;99.90
13742;DHT22;8461;52.356;10.704;2022-08-05T07:53:46;19.20;99.90
13742;DHT22;8461;52.356;10.704;2022-08-05T07:56:11;19.20;99.90
13742;DHT22;8461;52.356;10.704;2022-08-05T07:58:37;19.30;99.90
13742;DHT22;8461;52.356;10.704;2022-08-05T08:01:03;19.30;99.90
13742;DHT22;8461;52.356;10.704;2022-08-05T08:03:28;19.40;99.90
13742;DHT22;8461;52.356;10.704;2022-08-05T08:05:54;19.50;99.90
13742;DHT22;8461;52.356;10.704;2022-08-05T08:08:19;19.50;99.90
13742;DHT22;8461;52.356;10.704;2022-08-05T08:10:45;19.60;99.90
13742;DHT22;8461;52.356;10.704;2022-08-05T08:13:11;19.50;99.90
13742;DHT22;8461;52.356;10.704;2022-08-05T08:15:36;19.60;99.90
13742;DHT22;8461;52.356;10.704;2022-08-05T08:18:02;19.50;99.90
13742;DHT22;8461;52.356;10.704;2022-08-05T08:20:28;19.50;99.90
13742;DHT22;8461;52.356;10.704;2022-08-05T08:22:56;19.50;99.90
13742;DHT22;8461;52.356;10.704;2022-08-05T08:25:22;19.60;99.90
13742;DHT22;8461;52.356;10.704;2022-08-05T08:27:48;19.60;99.90
13742;DHT22;8461;52.356;10.704;2022-08-05T08:30:14;19.60;99.90
13742;DHT22;8461;52.356;10.704;2022-08-05T08:32:40;19.70;99.90
13742;DHT22;8461;52.356;10.704;2022-08-05T08:35:06;19.70;99.90
13742;DHT22;8461;52.356;10.704;2022-08-05T08:37:32;19.80;99.90
13742;DHT22;8461;52.356;10.704;2022-08-05T08:39:58;19.90;99.90
13742;DHT22;8461;52.356;10.704;2022-08-05T08:42:24;20.00;99.90
13742;DHT22;8461;52.356;10.704;2022-08-05T08:44:53;20.10;99.90
13742;DHT22;8461;52.356;10.704;2022-08-05T08:47:22;20.20;99.90
13742;DHT22;8461;52.356;10.704;2022-08-05T08:49:54;20.10;99.90
13742;DHT22;8461;52.356;10.704;2022-08-05T08:52:28;20.10;99.90
13742;DHT22;8461;52.356;10.704;2022-08-05T08:54:54;20.20;99.90
13742;DHT22;8461;52.356;10.704;2022-08-05T08:57:20;20.20;99.90
13742;DHT22;8461;52.356;10.704;2022-08-05T08:59:47;20.20;99.90
13742;DHT22;8461;52.356;10.704;2022-08-05T09:02:13;20.30;99.90
13742;DHT22;8461;52.356;10.704;2022-08-05T09:04:39;20.30;99.90
13742;DHT22;8461;52.356;10.704;2022-08-05T09:07:07;20.40;99.90
13742;DHT22;8461;52.356;10.704;2022-08-05T09:09:34;20.50;99.90
13742;DHT22;8461;52.356;10.704;2022-08-05T09:12:04;20.50;99.90
13742;DHT22;8461;52.356;10.704;2022-08-05T09:14:34;20.50;99.90
13742;DHT22;8461;52.356;10.704;2022-08-05T09:17:01;20.50;99.90
13742;DHT22;8461;52.356;10.704;2022-08-05T09:19:28;20.50;99.90
13742;DHT22;8461;52.356;10.704;2022-08-05T09:21:53;20.60;99.90
13742;DHT22;8461;52.356;10.704;2022-08-05T09:24:19;20.70;99.90
13742;DHT22;8461;52.356;10.704;2022-08-05T09:26:52;20.70;99.90
13742;DHT22;8461;52.356;10.704;2022-08-05T09:29:20;20.70;99.90
13742;DHT22;8461;52.356;10.704;2022-08-05T09:32:06;20.70;99.90
13742;DHT22;8461;52.356;10.704;2022-08-05T09:34:47;20.60;99.90
13742;DHT22;8461;52.356;10.704;2022-08-05T09:37:24;20.50;99.90
13742;DHT22;8461;52.356;10.704;2022-08-05T09:39:50;20.50;99.90
13742;DHT22;8461;52.356;10.704;2022-08-05T09:42:17;20.70;99.90
13742;DHT22;8461;52.356;10.704;2022-08-05T09:44:51;20.80;99.90
13742;DHT22;8461;52.356;10.704;2022-08-05T09:47:19;20.80;99.90
13742;DHT22;8461;52.356;10.704;2022-08-05T09:49:51;20.90;99.90
13742;DHT22;8461;52.356;10.704;2022-08-05T09:52:25;20.90;99.90
13742;DHT22;8461;52.356;10.704;2022-08-05T09:59:59;21.00;99.90
13742;DHT22;8461;52.356;10.704;2022-08-05T10:02:36;21.10;99.90
13742;DHT22;8461;52.356;10.704;2022-08-05T10:05:09;21.20;99.90
13742;DHT22;8461;52.356;10.704;2022-08-05T10:08:05;21.20;99.90
13742;DHT22;8461;52.356;10.704;2022-08-05T10:10:45;21.40;99.90
13742;DHT22;8461;52.356;10.704;2022-08-05T10:13:11;21.40;99.90
13742;DHT22;8461;52.356;10.704;2022-08-05T10:15:50;21.30;99.90
13742;DHT22;8461;52.356;10.704;2022-08-05T10:18:19;21.20;99.90
13742;DHT22;8461;52.356;10.704;2022-08-05T10:20:52;21.00;99.90
13742;DHT22;8461;52.356;10.704;2022-08-05T10:23:20;20.80;99.90
13742;DHT22;8461;52.356;10.704;2022-08-05T10:25:46;20.70;99.90
13742;DHT22;8461;52.356;10.704;2022-08-05T10:28:11;20.60;99.90
13742;DHT22;8461;52.356;10.704;2022-08-05T10:30:38;20.50;99.90
13742;DHT22;8461;52.356;10.704;2022-08-05T10:33:04;20.40;99.90
13742;DHT22;8461;52.356;10.704;2022-08-05T10:35:31;20.30;99.90
13742;DHT22;8461;52.356;10.704;2022-08-05T10:37:57;20.30;99.90
13742;DHT22;8461;52.356;10.704;2022-08-05T10:43:06;20.40;99.90
13742;DHT22;8461;52.356;10.704;2022-08-05T10:45:32;20.40;99.90
13742;DHT22;8461;52.356;10.704;2022-08-05T10:48:32;20.40;99.90
13742;DHT22;8461;52.356;10.704;2022-08-05T10:53:41;20.50;99.90
13742;DHT22;8461;52.356;10.704;2022-08-05T10:56:15;20.40;99.90
13742;DHT22;8461;52.356;10.704;2022-08-05T11:04:00;20.30;99.90
13742;DHT22;8461;52.356;10.704;2022-08-05T11:06:26;20.30;99.90
13742;DHT22;8461;52.356;10.704;2022-08-05T11:09:20;20.30;99.90
13742;DHT22;8461;52.356;10.704;2022-08-05T11:11:47;20.50;99.90
13742;DHT22;8461;52.356;10.704;2022-08-05T11:14:26;20.60;99.90
13742;DHT22;8461;52.356;10.704;2022-08-05T11:17:32;20.80;99.90
13742;DHT22;8461;52.356;10.704;2022-08-05T11:20:06;20.90;99.90
13742;DHT22;8461;52.356;10.704;2022-08-05T11:22:43;20.90;99.90
13742;DHT22;8461;52.356;10.704;2022-08-05T11:25:35;20.90;99.90
13742;DHT22;8461;52.356;10.704;2022-08-05T11:33:27;20.50;99.90
13742;DHT22;8461;52.356;10.704;2022-08-05T11:36:01;20.50;99.90
13742;DHT22;8461;52.356;10.704;2022-08-05T11:43:53;21.00;99.90
13742;DHT22;8461;52.356;10.704;2022-08-05T11:48:58;21.00;99.90
13742;DHT22;8461;52.356;10.704;2022-08-05T11:51:25;20.90;99.90
13742;DHT22;8461;52.356;10.704;2022-08-05T11:53:55;20.90;99.90
13742;DHT22;8461;52.356;10.704;2022-08-05T11:56:21;20.80;99.90
13742;DHT22;8461;52.356;10.704;2022-08-05T11:58:48;20.60;99.90
13742;DHT22;8461;52.356;10.704;2022-08-05T12:01:17;20.50;99.90
13742;DHT22;8461;52.356;10.704;2022-08-05T12:06:13;20.40;99.90
13742;DHT22;8461;52.356;10.704;2022-08-05T12:08:44;20.30;99.90
13742;DHT22;8461;52.356;10.704;2022-08-05T12:11:17;20.10;99.90
13742;DHT22;8461;52.356;10.704;2022-08-05T12:13:56;20.10;99.90
13742;DHT22;8461;52.356;10.704;2022-08-05T12:16:23;19.90;99.90
13742;DHT22;8461;52.356;10.704;2022-08-05T12:18:49;19.70;99.90
13742;DHT22;8461;52.356;10.704;2022-08-05T12:21:18;19.60;99.90
13742;DHT22;8461;52.356;10.704;2022-08-05T12:26:17;19.30;99.90
13742;DHT22;8461;52.356;10.704;2022-08-05T12:28:43;19.20;99.90
13742;DHT22;8461;52.356;10.704;2022-08-05T12:31:08;19.10;99.90
13742;DHT22;8461;52.356;10.704;2022-08-05T12:33:34;18.90;99.90
13742;DHT22;8461;52.356;10.704;2022-08-05T12:36:01;18.90;99.90
13742;DHT22;8461;52.356;10.704;2022-08-05T12:38:26;18.70;99.90
13742;DHT22;8461;52.356;10.704;2022-08-05T12:40:54;18.50;99.90
13742;DHT22;8461;52.356;10.704;2022-08-05T12:43:20;18.40;99.90
13742;DHT22;8461;52.356;10.704;2022-08-05T12:45:52;18.30;99.90
13742;DHT22;8461;52.356;10.704;2022-08-05T12:48:18;18.20;99.90
13742;DHT22;8461;52.356;10.704;2022-08-05T12:51:13;18.30;99.90
13742;DHT22;8461;52.356;10.704;2022-08-05T12:53:45;18.40;99.90
13742;DHT22;8461;52.356;10.704;2022-08-05T12:56:23;18.40;99.90
13742;DHT22;8461;52.356;10.704;2022-08-05T13:01:37;18.30;99.90
13742;DHT22;8461;52.356;10.704;2022-08-05T13:04:03;18.30;99.90
13742;DHT22;8461;52.356;10.704;2022-08-05T13:06:29;18.30;99.90
13742;DHT22;8461;52.356;10.704;2022-08-05T13:08:55;18.30;99.90
13742;DHT22;8461;52.356;10.704;2022-08-05T13:11:22;18.30;99.90
13742;DHT22;8461;52.356;10.704;2022-08-05T13:13:52;18.40;99.90
13742;DHT22;8461;52.356;10.704;2022-08-05T13:16:20;18.40;99.90
13742;DHT22;8461;52.356;10.704;2022-08-05T13:18:50;18.40;99.90
13742;DHT22;8461;52.356;10.704;2022-08-05T13:21:16;18.30;99.90
13742;DHT22;8461;52.356;10.704;2022-08-05T13:23:41;18.30;99.90
13742;DHT22;8461;52.356;10.704;2022-08-05T13:26:07;18.40;99.90
13742;DHT22;8461;52.356;10.704;2022-08-05T13:28:33;18.40;99.90
13742;DHT22;8461;52.356;10.704;2022-08-05T13:30:58;18.50;99.90
13742;DHT22;8461;52.356;10.704;2022-08-05T13:33:24;18.60;99.90
13742;DHT22;8461;52.356;10.704;2022-08-05T13:35:49;18.50;99.90
13742;DHT22;8461;52.356;10.704;2022-08-05T13:38:15;18.50;99.90
13742;DHT22;8461;52.356;10.704;2022-08-05T13:40:40;18.60;99.90
13742;DHT22;8461;52.356;10.704;2022-08-05T13:43:07;18.60;99.90
13742;DHT22;8461;52.356;10.704;2022-08-05T13:45:32;18.70;99.90
13742;DHT22;8461;52.356;10.704;2022-08-05T13:47:58;18.80;99.90
13742;DHT22;8461;52.356;10.704;2022-08-05T13:50:23;18.80;99.90
13742;DHT22;8461;52.356;10.704;2022-08-05T13:52:49;18.90;99.90
13742;DHT22;8461;52.356;10.704;2022-08-05T13:55:15;19.10;99.90
13742;DHT22;8461;52.356;10.704;2022-08-05T13:57:40;19.10;99.90
13742;DHT22;8461;52.356;10.704;2022-08-05T14:00:06;19.20;99.90
13742;DHT22;8461;52.356;10.704;2022-08-05T14:02:32;19.30;99.90
13742;DHT22;8461;52.356;10.704;2022-08-05T14:04:57;19.30;99.90
13742;DHT22;8461;52.356;10.704;2022-08-05T14:07:38;19.40;99.90
13742;DHT22;8461;52.356;10.704;2022-08-05T14:10:14;19.40;99.90
13742;DHT22;8461;52.356;10.704;2022-08-05T14:12:41;19.40;99.90
13742;DHT22;8461;52.356;10.704;2022-08-05T14:15:07;19.30;99.90
13742;DHT22;8461;52.356;10.704;2022-08-05T14:17:33;19.30;99.90
13742;DHT22;8461;52.356;10.704;2022-08-05T14:19:59;19.20;99.90
13742;DHT22;8461;52.356;10.704;2022-08-05T14:22:24;19.30;99.90
13742;DHT22;8461;52.356;10.704;2022-08-05T14:24:51;19.20;99.90
13742;DHT22;8461;52.356;10.704;2022-08-05T14:27:17;19.30;99.90
13742;DHT22;8461;52.356;10.704;2022-08-05T14:29:42;19.20;99.90
13742;DHT22;8461;52.356;10.704;2022-08-05T14:32:08;19.30;99.90
13742;DHT22;8461;52.356;10.704;2022-08-05T14:34:33;19.30;99.90
13742;DHT22;8461;52.356;10.704;2022-08-05T14:36:59;19.40;99.90
13742;DHT22;8461;52.356;10.704;2022-08-05T14:39:24;19.40;99.90
13742;DHT22;8461;52.356;10.704;2022-08-05T14:41:51;19.40;99.90
13742;DHT22;8461;52.356;10.704;2022-08-05T14:44:17;19.50;99.90
13742;DHT22;8461;52.356;10.704;2022-08-05T14:46:42;19.50;99.90
13742;DHT22;8461;52.356;10.704;2022-08-05T14:49:08;19.40;99.90
13742;DHT22;8461;52.356;10.704;2022-08-05T14:51:35;19.40;99.90
13742;DHT22;8461;52.356;10.704;2022-08-05T14:54:01;19.40;99.90
13742;DHT22;8461;52.356;10.704;2022-08-05T14:56:26;19.40;99.90
13742;DHT22;8461;52.356;10.704;2022-08-05T14:58:52;19.50;99.90
13742;DHT22;8461;52.356;10.704;2022-08-05T15:01:18;19.40;99.90
13742;DHT22;8461;52.356;10.704;2022-08-05T15:03:44;19.40;99.90
13742;DHT22;8461;52.356;10.704;2022-08-05T15:06:09;19.50;99.90
13742;DHT22;8461;52.356;10.704;2022-08-05T15:08:35;19.60;99.90
13742;DHT22;8461;52.356;10.704;2022-08-05T15:11:00;19.60;99.90
13742;DHT22;8461;52.356;10.704;2022-08-05T15:13:26;19.70;99.90
13742;DHT22;8461;52.356;10.704;2022-08-05T15:15:52;19.70;99.90
13742;DHT22;8461;52.356;10.704;2022-08-05T15:18:18;19.60;99.90
13742;DHT22;8461;52.356;10.704;2022-08-05T15:20:43;19.50;99.90
13742;DHT22;8461;52.356;10.704;2022-08-05T15:23:10;19.50;99.90
13742;DHT22;8461;52.356;10.704;2022-08-05T15:25:37;19.50;99.90
13742;DHT22;8461;52.356;10.704;2022-08-05T15:28:04;19.50;99.90
13742;DHT22;8461;52.356;10.704;2022-08-05T15:30:29;19.50;99.90
13742;DHT22;8461;52.356;10.704;2022-08-05T15:32:57;19.50;99.90
13742;DHT22;8461;52.356;10.704;2022-08-05T15:35:22;19.50;99.90
13742;DHT22;8461;52.356;10.704;2022-08-05T15:37:48;19.50;99.90
13742;DHT22;8461;52.356;10.704;2022-08-05T15:40:14;19.60;99.90
13742;DHT22;8461;52.356;10.704;2022-08-05T15:42:39;19.60;99.90
13742;DHT22;8461;52.356;10.704;2022-08-05T15:45:05;19.50;99.90
13742;DHT22;8461;52.356;10.704;2022-08-05T15:47:31;19.50;99.90
13742;DHT22;8461;52.356;10.704;2022-08-05T15:49:56;19.50;99.90
13742;DHT22;8461;52.356;10.704;2022-08-05T15:52:22;19.50;99.90
13742;DHT22;8461;52.356;10.704;2022-08-05T15:54:48;19.50;99.90
13742;DHT22;8461;52.356;10.704;2022-08-05T15:57:14;19.50;99.90
13742;DHT22;8461;52.356;10.704;2022-08-05T15:59:40;19.50;99.90
13742;DHT22;8461;52.356;10.704;2022-08-05T16:02:06;19.50;99.90
13742;DHT22;8461;52.356;10.704;2022-08-05T16:04:32;19.40;99.90
13742;DHT22;8461;52.356;10.704;2022-08-05T16:06:58;19.50;99.90
13742;DHT22;8461;52.356;10.704;2022-08-05T16:09:24;19.60;99.90
13742;DHT22;8461;52.356;10.704;2022-08-05T16:11:50;19.60;99.90
13742;DHT22;8461;52.356;10.704;2022-08-05T16:14:16;19.70;99.90
13742;DHT22;8461;52.356;10.704;2022-08-05T16:16:41;19.90;99.90